Kenner, LA (70063)

6:31 AM CST on January 31, 2015 (GMT -0600)
New Orleans International | Change Station
CLOSE
Current Station
Airport
Location: New Orleans,
Elevation: 3 ft
Nearby Weather Stations

Elev 3 ft 29.99 °N, 90.25 °W | Updated 38 minutes ago

Scattered Clouds
Scattered Clouds
45 °F
Feels Like 41 °F
N
7
Wind Variable Wind from ENE

Today
High -- | Low -- °F
--% Chance of Precip.
Yesterday
High -- | Low -- °F
Precip. -- in
6:51 AM 5:37 PM
Waxing Gibbous, 89% visible
Pressure 30.30 in
Visibility 10.0 miles
Clouds Scattered Clouds 25000 ft
Windchill 41 °F
Dew Point 34 °F
Humidity 65%
Rainfall 0.00 in
Snow Depth Not available.
UV 0 out of 12
Pollen 8.60 out of 12
Air Quality Not available.
Flu Activity Not available.
METAR KMSY 311153Z 07006KT 10SM SCT250 07/01 A3029 RMK AO2 SLP258 T00720011 10111 20072 55001

More Conditions Fewer Conditions

Pressure 30.30 in
Visibility 10.0 miles
Clouds Scattered Clouds 25000 ft
Windchill 41 °F
Dew Point 34 °F
Humidity 65%
Rainfall 0.00 in
Snow Depth Not available.
UV 0 out of 12
Pollen 8.60 out of 12
Air Quality Not available.
Flu Activity Not available.
METAR KMSY 311153Z 07006KT 10SM SCT250 07/01 A3029 RMK AO2 SLP258 T00720011 10111 20072 55001

More Conditions Fewer Conditions

10-Day Weather Forecast

Almanac

Astronomy

Jan. 31, 2015 Rise Set
Actual Time
Civil Twilight
Nautical Twilight
Astronomical Twilight
Moon
Length of Visible Light
Length of Day
Tomorrow will be .
, % of the Moon is Illuminated

Today's Extremes

State Highs State Lows

Community

WunderPhotos

Upload Photos

1,792,039 photos uploaded!

WunderBlogs® & News

Nearby

Air Quality

  Air Quality AQ Index Pollutant
Not available.

Snow Depth

Station Depth Elevation

Earthquake Activity

City Distance Mag. Time & Date
Minimum magnitude displayed is 2.5.

Coastal Water Temperatures

Place Temperature

Nearby Weather Stations